createdAt,value
2022-10-23T00:01:26.289Z,7.20
2022-10-23T00:03:56.248Z,14.73
2022-10-23T00:06:25.310Z,8.50
2022-10-23T00:08:55.173Z,6.83
2022-10-23T00:11:26.089Z,8.23
2022-10-23T00:13:58.575Z,10.70
2022-10-23T00:16:26.689Z,11.30
2022-10-23T00:18:54.645Z,10.00
2022-10-23T00:21:23.184Z,7.10
2022-10-23T00:23:51.460Z,5.43
2022-10-23T00:26:21.247Z,8.53
2022-10-23T00:28:52.869Z,6.27
2022-10-23T00:31:22.382Z,8.73
2022-10-23T00:33:50.645Z,7.03
2022-10-23T00:36:20.637Z,5.00
2022-10-23T00:38:48.898Z,5.53
2022-10-23T00:41:21.099Z,5.20
2022-10-23T00:44:12.216Z,3.90
2022-10-23T00:46:40.911Z,6.97
2022-10-23T00:49:09.414Z,5.80
2022-10-23T00:51:41.773Z,5.30
2022-10-23T00:54:23.506Z,5.57
2022-10-23T00:56:57.655Z,8.70
2022-10-23T00:59:25.685Z,12.13
2022-10-23T01:01:53.778Z,8.60
2022-10-23T01:04:22.793Z,8.27
2022-10-23T01:07:00.721Z,4.63
2022-10-23T01:09:33.631Z,8.40
2022-10-23T01:12:11.841Z,7.43
2022-10-23T01:14:54.629Z,7.07
2022-10-23T01:17:31.788Z,6.40
2022-10-23T01:20:31.526Z,4.50
2022-10-23T01:23:20.417Z,7.33
2022-10-23T01:26:05.637Z,9.40
2022-10-23T01:28:42.057Z,6.00
2022-10-23T01:31:16.600Z,9.00
2022-10-23T01:33:50.189Z,4.57
2022-10-23T01:36:25.278Z,6.90
2022-10-23T01:38:58.372Z,2.67
2022-10-23T01:41:31.352Z,2.10
2022-10-23T01:44:07.988Z,3.13
2022-10-23T01:46:37.370Z,3.80
2022-10-23T01:49:09.029Z,3.30
2022-10-23T01:51:38.939Z,5.93
2022-10-23T01:54:11.478Z,9.77
2022-10-23T01:56:42.463Z,3.10
2022-10-23T01:59:17.481Z,5.77
2022-10-23T02:01:49.001Z,5.73
2022-10-23T02:04:22.856Z,4.70
2022-10-23T02:06:50.959Z,3.10
2022-10-23T02:09:18.908Z,2.80
2022-10-23T02:11:55.296Z,4.53
2022-10-23T02:14:37.744Z,4.03
2022-10-23T02:17:16.669Z,5.33
2022-10-23T02:19:51.179Z,3.30
2022-10-23T02:22:25.480Z,5.33
2022-10-23T02:24:58.693Z,3.20
2022-10-23T02:27:34.157Z,3.10
2022-10-23T02:30:07.465Z,4.70
2022-10-23T02:32:37.784Z,3.83
2022-10-23T02:35:07.205Z,3.23
2022-10-23T02:37:35.476Z,3.80
2022-10-23T02:40:04.857Z,4.07
2022-10-23T02:42:38.104Z,4.57
2022-10-23T02:45:13.127Z,3.47
2022-10-23T02:47:53.377Z,4.30
2022-10-23T02:50:30.386Z,6.43
2022-10-23T02:53:07.024Z,6.70
2022-10-23T02:55:46.397Z,3.40
2022-10-23T02:58:22.230Z,3.73
2022-10-23T03:00:56.358Z,4.93
2022-10-23T03:03:31.416Z,2.70
2022-10-23T03:05:59.500Z,2.83
2022-10-23T03:08:27.484Z,4.00
2022-10-23T03:10:55.488Z,3.63
2022-10-23T03:13:23.513Z,2.67
2022-10-23T03:15:52.811Z,2.23
2022-10-23T03:18:20.772Z,3.07
2022-10-23T03:20:48.736Z,2.50
2022-10-23T03:23:16.813Z,2.33
2022-10-23T03:25:44.764Z,2.73
2022-10-23T03:28:12.712Z,8.37
2022-10-23T03:30:40.705Z,2.63
2022-10-23T03:33:09.987Z,3.10
2022-10-23T03:35:38.032Z,2.70
2022-10-23T03:38:05.983Z,3.83
2022-10-23T03:40:34.049Z,2.10
2022-10-23T03:43:02.116Z,1.93
2022-10-23T03:45:30.800Z,5.70
2022-10-23T03:47:58.779Z,2.30
2022-10-23T03:50:28.207Z,2.37
2022-10-23T03:52:56.169Z,2.93
2022-10-23T03:55:25.621Z,3.23
2022-10-23T03:57:53.575Z,1.90
2022-10-23T04:00:22.646Z,4.33
2022-10-23T04:02:50.640Z,2.10
2022-10-23T04:05:18.832Z,2.50
2022-10-23T04:07:48.123Z,4.67
2022-10-23T04:10:16.072Z,2.53
2022-10-23T04:12:44.494Z,1.80
2022-10-23T04:15:12.763Z,3.50
2022-10-23T04:17:40.717Z,2.63
2022-10-23T04:20:09.566Z,3.37
2022-10-23T04:22:37.505Z,2.60
2022-10-23T04:25:07.400Z,4.13
2022-10-23T04:27:35.369Z,5.63
2022-10-23T04:30:04.023Z,2.20
2022-10-23T04:32:32.166Z,8.20
2022-10-23T04:35:00.177Z,1.97
2022-10-23T04:37:28.476Z,7.17
2022-10-23T04:39:56.415Z,2.60
2022-10-23T04:44:58.502Z,3.30
2022-10-23T04:47:26.444Z,2.33
2022-10-23T04:49:54.396Z,12.13
2022-10-23T04:52:22.660Z,2.47
2022-10-23T04:54:51.143Z,4.47
2022-10-23T04:57:19.089Z,3.50
2022-10-23T04:59:48.401Z,5.70
2022-10-23T05:02:16.693Z,2.60
2022-10-23T05:04:44.671Z,4.33
2022-10-23T05:07:12.634Z,3.40
2022-10-23T05:09:40.604Z,5.30
2022-10-23T05:12:09.283Z,3.50
2022-10-23T05:14:37.245Z,5.60
2022-10-23T05:17:13.689Z,4.30
2022-10-23T05:19:47.030Z,4.17
2022-10-23T05:22:16.179Z,2.57
2022-10-23T05:24:46.999Z,8.23
2022-10-23T05:27:18.269Z,3.97
2022-10-23T05:29:46.198Z,4.27
2022-10-23T05:32:17.338Z,2.03
2022-10-23T05:34:45.527Z,3.13
2022-10-23T05:37:15.580Z,1.90
2022-10-23T05:39:43.873Z,3.00
2022-10-23T05:42:11.885Z,5.87
2022-10-23T05:44:40.074Z,2.60
2022-10-23T05:47:08.542Z,2.23
2022-10-23T05:49:38.060Z,2.17
2022-10-23T05:52:06.276Z,5.60
2022-10-23T05:54:34.251Z,7.10
2022-10-23T05:57:02.174Z,4.97
2022-10-23T05:59:30.173Z,2.77
2022-10-23T06:01:58.273Z,3.30
2022-10-23T06:04:26.551Z,4.93
2022-10-23T06:06:56.024Z,5.63
2022-10-23T06:09:23.979Z,3.30
2022-10-23T06:11:51.981Z,2.07
2022-10-23T06:14:20.091Z,4.90
2022-10-23T06:16:48.132Z,2.83
2022-10-23T06:19:16.072Z,2.90
2022-10-23T06:21:44.055Z,5.17
2022-10-23T06:24:13.356Z,3.23
2022-10-23T06:26:41.374Z,2.23
2022-10-23T06:29:09.423Z,2.40
2022-10-23T06:31:37.413Z,4.03
2022-10-23T06:34:05.958Z,7.00
2022-10-23T06:36:33.974Z,4.70
2022-10-23T06:39:01.927Z,2.83
2022-10-23T06:41:31.231Z,2.13
2022-10-23T06:43:59.175Z,2.57
2022-10-23T06:46:29.755Z,1.90
2022-10-23T06:48:57.818Z,1.80
2022-10-23T06:51:29.550Z,4.27
2022-10-23T06:53:57.976Z,1.30
2022-10-23T06:56:29.043Z,3.13
2022-10-23T06:58:58.386Z,2.03
2022-10-23T07:01:26.567Z,1.43
2022-10-23T07:03:54.699Z,2.13
2022-10-23T07:06:22.698Z,3.03
2022-10-23T07:08:50.977Z,1.37
2022-10-23T07:11:19.472Z,2.13
2022-10-23T07:13:47.501Z,2.70
2022-10-23T07:16:18.989Z,3.77
2022-10-23T07:18:48.325Z,2.83
2022-10-23T07:21:16.874Z,2.93
2022-10-23T07:23:44.877Z,2.30
2022-10-23T07:26:16.660Z,5.07
2022-10-23T07:28:47.225Z,3.00
2022-10-23T07:31:16.513Z,3.13
2022-10-23T07:33:44.634Z,1.73
2022-10-23T07:36:12.621Z,3.70
2022-10-23T07:38:40.648Z,2.93
2022-10-23T07:41:11.630Z,2.23
2022-10-23T07:43:40.828Z,2.30
2022-10-23T07:46:09.746Z,2.57
2022-10-23T07:48:39.561Z,3.07
2022-10-23T07:51:12.316Z,2.93
2022-10-23T07:53:41.212Z,3.97
2022-10-23T07:56:15.731Z,1.70
2022-10-23T07:58:44.009Z,1.57
2022-10-23T08:01:20.645Z,2.90
2022-10-23T08:03:50.050Z,3.30
2022-10-23T08:06:18.076Z,3.20
2022-10-23T08:11:25.771Z,2.30
2022-10-23T08:13:54.428Z,7.57
2022-10-23T08:16:22.743Z,2.73
2022-10-23T08:18:52.658Z,2.57
2022-10-23T08:21:21.032Z,3.43
2022-10-23T08:23:49.156Z,4.20
2022-10-23T08:26:17.193Z,1.30
2022-10-23T08:28:45.183Z,2.87
2022-10-23T08:31:19.772Z,7.10
2022-10-23T08:36:24.844Z,3.97
2022-10-23T08:38:54.680Z,4.60
2022-10-23T08:41:28.793Z,6.53
2022-10-23T08:44:03.788Z,5.40
2022-10-23T08:46:35.707Z,5.93
2022-10-23T08:49:19.074Z,4.00
2022-10-23T08:51:53.356Z,1.80
2022-10-23T08:54:26.738Z,6.50
2022-10-23T08:57:01.399Z,4.30
2022-10-23T08:59:39.477Z,2.97
2022-10-23T09:02:17.821Z,2.47
2022-10-23T09:04:49.058Z,3.27
2022-10-23T09:07:29.558Z,2.70
2022-10-23T09:10:20.047Z,3.50
2022-10-23T09:12:48.215Z,4.50
2022-10-23T09:15:26.077Z,2.77
2022-10-23T09:18:01.219Z,3.83
2022-10-23T09:20:34.048Z,4.10
2022-10-23T09:23:19.878Z,2.10
2022-10-23T09:25:50.821Z,3.30
2022-10-23T09:28:23.772Z,9.30
2022-10-23T09:30:52.952Z,6.57
2022-10-23T09:33:23.603Z,5.43
2022-10-23T09:35:57.772Z,9.50
2022-10-23T09:38:33.004Z,7.50
2022-10-23T09:41:07.442Z,4.47
2022-10-23T09:43:35.660Z,10.63
2022-10-23T09:46:06.849Z,10.90
2022-10-23T09:48:35.479Z,4.90
2022-10-23T09:51:05.766Z,6.27
2022-10-23T09:53:39.882Z,5.43
2022-10-23T09:56:26.395Z,6.20
2022-10-23T09:58:57.824Z,9.93
2022-10-23T10:01:27.609Z,23.17
2022-10-23T10:03:56.754Z,4.80
2022-10-23T10:06:28.147Z,7.60
2022-10-23T10:08:59.738Z,12.03
2022-10-23T10:11:35.426Z,10.23
2022-10-23T10:14:32.115Z,16.57
2022-10-23T10:17:04.765Z,16.67
2022-10-23T10:19:48.891Z,12.00
2022-10-23T10:22:30.272Z,11.83
2022-10-23T10:25:08.125Z,16.23
2022-10-23T10:27:46.843Z,9.63
2022-10-23T10:30:17.800Z,17.00
2022-10-23T10:32:52.515Z,11.27
2022-10-23T10:35:41.078Z,18.67
2022-10-23T10:38:36.496Z,12.90
2022-10-23T10:41:26.109Z,12.73
2022-10-23T10:44:15.394Z,7.17
2022-10-23T10:46:51.331Z,14.87
2022-10-23T10:49:26.850Z,11.97
2022-10-23T10:52:05.512Z,7.80
2022-10-23T10:54:48.723Z,11.10
2022-10-23T10:57:32.292Z,14.70
2022-10-23T11:00:07.368Z,7.57
2022-10-23T11:02:41.643Z,19.67
2022-10-23T11:05:21.000Z,19.30
2022-10-23T11:07:56.759Z,51.03
2022-10-23T11:10:25.100Z,15.77
2022-10-23T11:12:54.650Z,23.77
2022-10-23T11:15:27.508Z,32.53
2022-10-23T11:17:59.654Z,29.43
2022-10-23T11:20:55.163Z,13.20
2022-10-23T11:24:23.517Z,10.33
2022-10-23T11:27:19.075Z,22.47
2022-10-23T11:30:09.537Z,20.50
2022-10-23T11:33:16.775Z,19.90
2022-10-23T11:35:55.606Z,13.93
2022-10-23T11:38:27.984Z,16.97
2022-10-23T11:41:00.746Z,13.90
2022-10-23T11:43:31.434Z,8.33
2022-10-23T11:46:13.434Z,10.43
2022-10-23T11:48:43.365Z,11.50
2022-10-23T11:51:29.888Z,15.10
2022-10-23T11:54:27.023Z,11.90
2022-10-23T11:57:12.052Z,8.90
2022-10-23T11:59:53.709Z,7.00
2022-10-23T12:02:31.915Z,14.47
2022-10-23T12:05:04.565Z,9.03
2022-10-23T12:07:36.965Z,13.43
2022-10-23T12:10:07.882Z,14.17
2022-10-23T12:12:40.703Z,6.90
2022-10-23T12:15:22.012Z,9.00
2022-10-23T12:17:53.991Z,10.00
2022-10-23T12:20:46.283Z,9.60
2022-10-23T12:23:38.149Z,15.50
2022-10-23T12:26:25.181Z,6.30
2022-10-23T12:29:05.894Z,6.20
2022-10-23T12:31:47.995Z,7.23
2022-10-23T12:34:35.722Z,8.33
2022-10-23T12:37:28.838Z,11.57
2022-10-23T12:39:58.902Z,6.63
2022-10-23T12:42:30.643Z,8.23
2022-10-23T12:45:00.510Z,5.87
2022-10-23T12:47:29.512Z,8.70
2022-10-23T12:49:58.817Z,14.83
2022-10-23T12:52:26.809Z,10.53
2022-10-23T12:54:54.721Z,16.47
2022-10-23T12:57:26.481Z,6.53
2022-10-23T12:59:59.132Z,5.93
2022-10-23T13:02:29.190Z,3.83
2022-10-23T13:05:02.389Z,8.87
2022-10-23T13:07:33.619Z,6.87
2022-10-23T13:10:02.635Z,6.67
2022-10-23T13:12:32.800Z,11.60
2022-10-23T13:15:13.980Z,5.73
2022-10-23T13:17:44.727Z,9.07
2022-10-23T13:20:26.220Z,7.93
2022-10-23T13:23:02.564Z,8.20
2022-10-23T13:25:33.888Z,10.20
2022-10-23T13:28:25.766Z,11.00
2022-10-23T13:31:04.454Z,8.90
2022-10-23T13:33:36.808Z,7.60
2022-10-23T13:36:21.802Z,12.70
2022-10-23T13:39:03.069Z,9.30
2022-10-23T13:41:39.513Z,6.93
2022-10-23T13:44:07.968Z,5.10
2022-10-23T13:46:35.995Z,6.07
2022-10-23T13:49:04.282Z,8.30
2022-10-23T13:51:42.471Z,5.00
2022-10-23T13:54:16.848Z,10.13
2022-10-23T13:56:45.010Z,4.77
2022-10-23T13:59:13.779Z,8.13
2022-10-23T14:01:43.215Z,10.90
2022-10-23T14:04:12.138Z,6.07
2022-10-23T14:06:42.066Z,7.00
2022-10-23T14:09:14.714Z,5.70
2022-10-23T14:11:43.233Z,5.90
2022-10-23T14:14:11.309Z,9.90
2022-10-23T14:16:39.257Z,13.33
2022-10-23T14:19:07.855Z,10.23
2022-10-23T14:21:35.836Z,4.70
2022-10-23T14:24:05.383Z,7.83
2022-10-23T14:26:34.217Z,4.57
2022-10-23T14:29:06.514Z,7.87
2022-10-23T14:31:38.192Z,6.83
2022-10-23T14:34:06.178Z,6.30
2022-10-23T14:36:43.338Z,3.70
2022-10-23T14:39:19.597Z,6.50
2022-10-23T14:41:47.731Z,6.13
2022-10-23T14:44:15.650Z,5.27
2022-10-23T14:46:43.631Z,7.00
2022-10-23T14:49:11.574Z,6.20
2022-10-23T14:51:39.572Z,9.73
2022-10-23T14:54:08.991Z,9.27
2022-10-23T14:56:40.661Z,14.13
2022-10-23T14:59:10.564Z,16.00
2022-10-23T15:01:45.090Z,8.73
2022-10-23T15:04:14.819Z,7.10
2022-10-23T15:06:43.836Z,10.57
2022-10-23T15:09:12.024Z,8.90
2022-10-23T15:11:41.363Z,7.40
2022-10-23T15:14:09.392Z,5.20
2022-10-23T15:16:41.376Z,5.63
2022-10-23T15:19:13.525Z,5.87
2022-10-23T15:21:45.456Z,13.93
2022-10-23T15:24:13.483Z,7.43
2022-10-23T15:26:43.290Z,5.77
2022-10-23T15:29:12.060Z,4.67
2022-10-23T15:31:49.143Z,5.50
2022-10-23T15:34:20.005Z,6.40
2022-10-23T15:36:48.767Z,6.27
2022-10-23T15:39:19.992Z,3.70
2022-10-23T15:41:52.550Z,3.97
2022-10-23T15:44:22.977Z,4.20
2022-10-23T15:46:51.873Z,6.90
2022-10-23T15:49:20.656Z,6.50
2022-10-23T15:51:48.786Z,3.50
2022-10-23T15:54:19.022Z,5.10
2022-10-23T15:56:50.677Z,11.50
2022-10-23T15:59:21.169Z,6.13
2022-10-23T16:01:49.802Z,6.07
2022-10-23T16:04:18.408Z,6.87
2022-10-23T16:06:47.064Z,3.73
2022-10-23T16:09:16.287Z,3.57
2022-10-23T16:11:44.991Z,6.53
2022-10-23T16:14:17.369Z,4.73
2022-10-23T16:16:45.414Z,5.60
2022-10-23T16:19:14.099Z,4.23
2022-10-23T16:21:43.121Z,6.80
2022-10-23T16:24:11.526Z,6.47
2022-10-23T16:26:40.005Z,4.83
2022-10-23T16:29:09.861Z,3.20
2022-10-23T16:31:39.201Z,4.77
2022-10-23T16:34:07.844Z,3.73
2022-10-23T16:36:38.831Z,3.50
2022-10-23T16:39:07.476Z,3.93
2022-10-23T16:41:35.711Z,5.87
2022-10-23T16:44:03.815Z,5.03
2022-10-23T16:46:32.164Z,4.63
2022-10-23T16:49:02.809Z,8.60
2022-10-23T16:51:31.444Z,6.90
2022-10-23T16:54:00.029Z,6.87
2022-10-23T16:56:29.789Z,5.20
2022-10-23T17:01:33.901Z,4.50
2022-10-23T17:04:03.349Z,4.30
2022-10-23T17:06:33.608Z,5.87
2022-10-23T17:09:02.810Z,8.40
2022-10-23T17:11:32.797Z,4.07
2022-10-23T17:14:04.144Z,6.90
2022-10-23T17:16:35.924Z,5.47
2022-10-23T17:19:21.015Z,4.00
2022-10-23T17:21:57.227Z,5.80
2022-10-23T17:24:25.320Z,3.80
2022-10-23T17:26:53.991Z,6.47
2022-10-23T17:29:22.849Z,2.53
2022-10-23T17:31:52.028Z,4.30
2022-10-23T17:34:24.227Z,7.00
2022-10-23T17:36:55.633Z,5.70
2022-10-23T17:39:26.342Z,2.90
2022-10-23T17:41:55.153Z,5.00
2022-10-23T17:44:23.459Z,4.03
2022-10-23T17:46:53.725Z,6.57
2022-10-23T17:49:24.079Z,5.10
2022-10-23T17:51:55.682Z,5.77
2022-10-23T17:54:25.299Z,4.33
2022-10-23T17:56:53.286Z,4.40
2022-10-23T17:59:21.281Z,3.80
2022-10-23T18:01:49.990Z,3.40
2022-10-23T18:04:20.379Z,4.60
2022-10-23T18:06:52.567Z,3.80
2022-10-23T18:09:21.561Z,7.27
2022-10-23T18:11:50.655Z,4.03
2022-10-23T18:14:21.024Z,5.30
2022-10-23T18:16:50.145Z,6.73
2022-10-23T18:19:19.190Z,5.20
2022-10-23T18:21:49.169Z,8.13
2022-10-23T18:24:18.219Z,8.70
2022-10-23T18:26:47.805Z,7.83
2022-10-23T18:29:17.308Z,5.13
2022-10-23T18:31:47.885Z,5.17
2022-10-23T18:34:18.745Z,9.60
2022-10-23T18:36:47.243Z,5.27
2022-10-23T18:39:22.025Z,7.07
2022-10-23T18:41:54.225Z,5.07
2022-10-23T18:44:24.168Z,5.20
2022-10-23T18:46:52.819Z,7.87
2022-10-23T18:49:21.553Z,7.37
2022-10-23T18:51:50.656Z,5.00
2022-10-23T18:54:22.492Z,5.23
2022-10-23T18:56:50.598Z,3.80
2022-10-23T18:59:20.746Z,8.23
2022-10-23T19:01:49.382Z,7.87
2022-10-23T19:04:17.802Z,10.13
2022-10-23T19:06:46.636Z,3.67
2022-10-23T19:09:15.245Z,5.47
2022-10-23T19:11:45.430Z,3.43
2022-10-23T19:14:13.566Z,6.50
2022-10-23T19:16:46.148Z,4.30
2022-10-23T19:19:18.787Z,6.83
2022-10-23T19:21:47.605Z,8.33
2022-10-23T19:24:19.160Z,5.90
2022-10-23T19:26:49.260Z,3.50
2022-10-23T19:29:21.758Z,6.27
2022-10-23T19:31:50.565Z,6.77
2022-10-23T19:34:20.321Z,4.57
2022-10-23T19:36:49.267Z,4.00
2022-10-23T19:39:17.663Z,3.20
2022-10-23T19:41:47.785Z,7.57
2022-10-23T19:44:16.167Z,5.33
2022-10-23T19:46:44.404Z,3.30
2022-10-23T19:49:12.568Z,5.20
2022-10-23T19:51:40.838Z,4.43
2022-10-23T19:54:10.448Z,4.13
2022-10-23T19:56:38.816Z,6.60
2022-10-23T19:59:08.558Z,3.73
2022-10-23T20:01:36.554Z,6.57
2022-10-23T20:04:04.637Z,3.43
2022-10-23T20:06:35.388Z,5.20
2022-10-23T20:09:04.813Z,7.07
2022-10-23T20:11:33.056Z,4.60
2022-10-23T20:14:01.025Z,5.20
2022-10-23T20:16:33.824Z,2.97
2022-10-23T20:19:06.411Z,4.23
2022-10-23T20:21:37.217Z,3.77
2022-10-23T20:24:05.883Z,4.07
2022-10-23T20:26:34.495Z,6.30
2022-10-23T20:29:02.523Z,6.70
2022-10-23T20:31:31.988Z,5.70
2022-10-23T20:34:00.865Z,4.10
2022-10-23T20:36:31.117Z,4.57
2022-10-23T20:39:01.891Z,3.80
2022-10-23T20:41:32.917Z,9.23
2022-10-23T20:44:01.682Z,8.57
2022-10-23T20:46:31.017Z,4.10
2022-10-23T20:48:59.236Z,5.00
2022-10-23T20:51:27.831Z,3.63
2022-10-23T20:53:55.932Z,3.60
2022-10-23T20:56:30.108Z,3.67
2022-10-23T20:58:58.529Z,5.27
2022-10-23T21:01:26.912Z,4.37
2022-10-23T21:03:58.662Z,3.47
2022-10-23T21:06:37.093Z,4.80
2022-10-23T21:09:13.821Z,5.47
2022-10-23T21:11:41.881Z,4.83
2022-10-23T21:14:09.825Z,3.53
2022-10-23T21:16:40.673Z,4.40
2022-10-23T21:19:12.640Z,8.60
2022-10-23T21:21:41.013Z,7.33
2022-10-23T21:24:13.949Z,5.57
2022-10-23T21:26:42.184Z,3.60
2022-10-23T21:29:18.561Z,4.00
2022-10-23T21:31:53.793Z,3.70
2022-10-23T21:34:23.143Z,6.27
2022-10-23T21:37:11.889Z,6.10
2022-10-23T21:39:39.154Z,4.13
2022-10-23T21:42:07.492Z,8.23
2022-10-23T21:44:35.469Z,5.53
2022-10-23T21:47:03.460Z,11.10
2022-10-23T21:49:33.131Z,3.30
2022-10-23T21:52:01.142Z,4.87
2022-10-23T21:54:29.140Z,6.57
2022-10-23T21:56:57.111Z,5.70
2022-10-23T21:59:30.095Z,4.07
2022-10-23T22:02:00.333Z,3.47
2022-10-23T22:04:28.456Z,5.37
2022-10-23T22:06:57.851Z,2.53
2022-10-23T22:09:25.872Z,3.13
2022-10-23T22:11:55.267Z,6.90
2022-10-23T22:14:24.504Z,5.00
2022-10-23T22:16:52.477Z,4.60
2022-10-23T22:19:22.751Z,6.33
2022-10-23T22:21:51.650Z,4.20
2022-10-23T22:24:21.449Z,6.80
2022-10-23T22:26:52.085Z,3.53
2022-10-23T22:29:24.053Z,4.47
2022-10-23T22:31:53.046Z,2.50
2022-10-23T22:37:12.583Z,5.10
2022-10-23T22:39:42.168Z,4.50
2022-10-23T22:42:10.258Z,5.87
2022-10-23T22:44:38.264Z,4.90
2022-10-23T22:47:07.196Z,2.27
2022-10-23T22:49:35.337Z,4.60
2022-10-23T22:52:03.410Z,3.63
2022-10-23T22:54:31.670Z,2.73
2022-10-23T22:57:01.096Z,2.90
2022-10-23T22:59:29.236Z,8.73
2022-10-23T23:01:57.485Z,3.90
2022-10-23T23:04:37.358Z,5.60
2022-10-23T23:07:06.606Z,4.00
2022-10-23T23:09:38.487Z,5.10
2022-10-23T23:12:09.879Z,4.43
2022-10-23T23:14:38.373Z,4.10
2022-10-23T23:17:07.664Z,4.50
2022-10-23T23:19:35.871Z,3.80
2022-10-23T23:22:04.672Z,3.20
2022-10-23T23:24:33.008Z,4.63
2022-10-23T23:27:00.964Z,5.13
2022-10-23T23:29:30.541Z,3.37
2022-10-23T23:31:58.548Z,3.70
2022-10-23T23:34:26.724Z,3.23
2022-10-23T23:36:54.664Z,5.37
2022-10-23T23:39:22.598Z,3.73
2022-10-23T23:41:50.624Z,3.07
2022-10-23T23:44:18.601Z,4.17
2022-10-23T23:46:48.004Z,3.23
2022-10-23T23:49:15.979Z,3.20
2022-10-23T23:51:43.978Z,3.40
2022-10-23T23:54:11.960Z,4.37
2022-10-23T23:56:39.931Z,4.53
2022-10-23T23:59:07.923Z,2.73
